createdAt,value
2019-05-13T00:00:25.503Z,2.65
2019-05-13T00:02:58.355Z,2.90
2019-05-13T00:05:31.192Z,2.77
2019-05-13T00:08:03.991Z,2.42
2019-05-13T00:10:36.843Z,2.10
2019-05-13T00:13:09.628Z,2.62
2019-05-13T00:15:44.358Z,2.45
2019-05-13T00:18:17.512Z,2.37
2019-05-13T00:20:50.396Z,2.10
2019-05-13T00:23:23.416Z,2.27
2019-05-13T00:25:56.348Z,2.00
2019-05-13T00:28:29.212Z,1.95
2019-05-13T00:31:03.434Z,2.10
2019-05-13T00:33:36.537Z,2.40
2019-05-13T00:36:09.547Z,2.25
2019-05-13T00:38:44.023Z,2.00
2019-05-13T00:41:17.001Z,2.00
2019-05-13T00:43:49.825Z,2.15
2019-05-13T00:46:23.579Z,1.77
2019-05-13T00:48:56.504Z,2.15
2019-05-13T00:51:29.397Z,2.00
2019-05-13T00:54:04.249Z,2.10
2019-05-13T00:56:36.846Z,1.90
2019-05-13T00:59:09.695Z,2.00
2019-05-13T01:01:44.039Z,1.65
2019-05-13T01:04:17.240Z,1.82
2019-05-13T01:06:50.157Z,2.27
2019-05-13T01:09:23.762Z,2.12
2019-05-13T01:11:57.441Z,1.90
2019-05-13T01:14:30.249Z,1.75
2019-05-13T01:17:03.915Z,2.40
2019-05-13T01:19:37.011Z,2.40
2019-05-13T01:22:09.909Z,1.80
2019-05-13T01:24:44.141Z,1.87
2019-05-13T01:27:17.334Z,2.00
2019-05-13T01:29:50.155Z,1.95
2019-05-13T01:32:23.816Z,2.05
2019-05-13T01:34:58.392Z,2.00
2019-05-13T01:37:41.995Z,2.22
2019-05-13T01:40:06.685Z,1.90
2019-05-13T01:42:39.585Z,2.58
2019-05-13T01:45:13.687Z,1.82
2019-05-13T01:47:46.835Z,2.00
2019-05-13T01:50:20.150Z,1.98
2019-05-13T01:52:53.352Z,1.85
2019-05-13T01:55:26.224Z,1.90
2019-05-13T01:57:59.009Z,2.33
2019-05-13T02:00:34.913Z,1.95
2019-05-13T02:03:06.634Z,1.90
2019-05-13T02:05:39.522Z,2.15
2019-05-13T02:08:14.351Z,1.30
2019-05-13T02:10:57.042Z,2.00
2019-05-13T02:13:29.878Z,1.90
2019-05-13T02:16:04.144Z,1.87
2019-05-13T02:18:37.337Z,1.80
2019-05-13T02:21:10.322Z,1.70
2019-05-13T02:23:44.310Z,1.98
2019-05-13T02:26:17.988Z,1.98
2019-05-13T02:28:51.185Z,2.20
2019-05-13T02:31:39.614Z,1.92
2019-05-13T02:33:58.652Z,1.47
2019-05-13T02:36:33.068Z,1.47
2019-05-13T02:39:08.376Z,1.70
2019-05-13T02:41:43.098Z,2.02
2019-05-13T02:44:15.792Z,1.92
2019-05-13T02:46:48.598Z,1.92
2019-05-13T02:49:23.105Z,1.70
2019-05-13T02:51:56.001Z,2.22
2019-05-13T02:54:28.859Z,1.95
2019-05-13T02:57:03.707Z,1.82
2019-05-13T02:59:37.448Z,2.17
2019-05-13T03:02:12.275Z,2.55
2019-05-13T03:04:44.808Z,2.47
2019-05-13T03:07:17.694Z,2.10
2019-05-13T03:09:52.752Z,2.08
2019-05-13T03:12:25.043Z,1.85
2019-05-13T03:14:57.988Z,2.50
2019-05-13T03:17:38.353Z,2.22
2019-05-13T03:20:16.127Z,2.80
2019-05-13T03:22:45.964Z,2.10
2019-05-13T03:25:22.197Z,2.27
2019-05-13T03:27:54.295Z,2.37
2019-05-13T03:30:27.245Z,2.22
2019-05-13T03:33:04.020Z,2.02
2019-05-13T03:35:36.587Z,2.40
2019-05-13T03:38:12.535Z,1.75
2019-05-13T03:40:44.345Z,2.60
2019-05-13T03:43:18.136Z,2.80
2019-05-13T03:45:52.773Z,2.20
2019-05-13T03:48:25.704Z,2.90
2019-05-13T03:50:58.866Z,2.60
2019-05-13T03:53:32.740Z,2.60
2019-05-13T03:56:05.968Z,2.40
2019-05-13T03:58:43.359Z,2.25
2019-05-13T04:01:14.921Z,2.67
2019-05-13T04:03:47.722Z,2.72
2019-05-13T04:06:23.395Z,2.60
2019-05-13T04:09:15.706Z,2.60
2019-05-13T04:11:32.968Z,2.70
2019-05-13T04:14:05.512Z,2.95
2019-05-13T04:16:38.321Z,2.62
2019-05-13T04:19:12.291Z,2.70
2019-05-13T04:21:46.191Z,2.77
2019-05-13T04:24:19.084Z,2.20
2019-05-13T04:26:53.388Z,2.17
2019-05-13T04:29:26.694Z,1.92
2019-05-13T04:32:02.222Z,2.90
2019-05-13T04:34:34.551Z,3.40
2019-05-13T04:37:07.405Z,2.67
2019-05-13T04:39:50.094Z,2.67
2019-05-13T04:42:14.685Z,2.35
2019-05-13T04:44:47.820Z,2.17
2019-05-13T04:47:22.892Z,2.30
2019-05-13T04:49:56.218Z,2.90
2019-05-13T04:52:29.081Z,2.70
2019-05-13T04:55:03.387Z,2.30
2019-05-13T04:57:37.151Z,2.33
2019-05-13T05:00:12.845Z,2.02
2019-05-13T05:03:33.255Z,2.00
2019-05-13T05:06:58.892Z,2.60
2019-05-13T05:10:37.810Z,2.00
2019-05-13T05:13:42.922Z,2.30
2019-05-13T05:16:44.860Z,2.37
2019-05-13T05:20:12.317Z,2.37
2019-05-13T05:23:37.177Z,2.37
2019-05-13T05:27:21.234Z,1.77
2019-05-13T05:30:42.269Z,2.20
2019-05-13T05:34:32.395Z,2.45
2019-05-13T05:37:52.297Z,2.20
2019-05-13T05:40:31.753Z,1.77
2019-05-13T05:43:05.620Z,2.20
2019-05-13T05:45:41.301Z,1.75
2019-05-13T05:48:18.231Z,1.98
2019-05-13T05:50:53.817Z,1.92
2019-05-13T05:53:27.852Z,2.00
2019-05-13T05:56:02.317Z,2.12
2019-05-13T05:58:36.224Z,2.10
2019-05-13T06:01:11.827Z,1.70
2019-05-13T06:03:46.510Z,1.95
2019-05-13T06:06:22.726Z,2.45
2019-05-13T06:08:55.870Z,1.65
2019-05-13T06:11:31.109Z,1.70
2019-05-13T06:14:03.907Z,1.62
2019-05-13T06:16:39.516Z,1.62
2019-05-13T06:19:12.425Z,1.50
2019-05-13T06:21:45.331Z,1.90
2019-05-13T06:24:24.585Z,1.75
2019-05-13T06:26:57.013Z,1.67
2019-05-13T06:29:31.796Z,1.40
2019-05-13T06:32:18.170Z,1.40
2019-05-13T06:34:41.533Z,1.90
2019-05-13T06:37:14.925Z,1.30
2019-05-13T06:39:48.232Z,1.50
2019-05-13T06:42:22.212Z,1.50
2019-05-13T06:44:55.249Z,1.40
2019-05-13T06:47:28.132Z,1.52
2019-05-13T06:50:03.044Z,1.50
2019-05-13T06:52:35.549Z,1.45
2019-05-13T06:55:11.404Z,1.57
2019-05-13T06:57:43.754Z,1.77
2019-05-13T07:00:16.689Z,1.10
2019-05-13T07:02:51.885Z,1.35
2019-05-13T07:05:24.934Z,1.62
2019-05-13T07:07:57.775Z,2.05
2019-05-13T07:10:32.075Z,1.45
2019-05-13T07:13:06.204Z,1.60
2019-05-13T07:15:41.435Z,1.65
2019-05-13T07:18:16.247Z,1.70
2019-05-13T07:20:48.203Z,1.60
2019-05-13T07:23:22.375Z,1.70
2019-05-13T07:25:56.530Z,1.65
2019-05-13T07:28:32.048Z,1.62
2019-05-13T07:31:04.097Z,1.30
2019-05-13T07:33:36.989Z,1.30
2019-05-13T07:36:12.517Z,1.40
2019-05-13T07:38:44.809Z,1.20
2019-05-13T07:41:31.396Z,1.72
2019-05-13T07:43:52.356Z,1.40
2019-05-13T07:46:25.237Z,1.35
2019-05-13T07:48:58.364Z,1.25
2019-05-13T07:51:32.793Z,1.42
2019-05-13T07:54:05.920Z,1.30
2019-05-13T07:56:38.836Z,1.20
2019-05-13T07:59:12.451Z,1.15
2019-05-13T08:01:46.052Z,1.62
2019-05-13T08:04:22.777Z,1.30
2019-05-13T08:06:53.712Z,1.17
2019-05-13T08:09:26.659Z,1.40
2019-05-13T08:12:08.721Z,1.10
2019-05-13T08:14:34.400Z,1.57
2019-05-13T08:17:07.279Z,1.75
2019-05-13T08:19:41.365Z,1.27
2019-05-13T08:22:14.406Z,1.27
2019-05-13T08:24:50.813Z,1.35
2019-05-13T08:27:30.427Z,1.80
2019-05-13T08:29:56.470Z,1.40
2019-05-13T08:32:31.436Z,1.82
2019-05-13T08:35:09.033Z,1.60
2019-05-13T08:37:41.385Z,0.90
2019-05-13T08:40:15.039Z,1.30
2019-05-13T08:42:48.011Z,1.35
2019-05-13T08:45:22.376Z,1.75
2019-05-13T08:47:55.399Z,1.12
2019-05-13T08:50:28.433Z,1.10
2019-05-13T08:53:01.828Z,1.07
2019-05-13T08:55:35.021Z,0.80
2019-05-13T08:58:07.885Z,1.40
2019-05-13T09:00:53.299Z,1.65
2019-05-13T09:03:26.610Z,1.35
2019-05-13T09:06:02.523Z,1.10
2019-05-13T09:08:34.661Z,1.10
2019-05-13T09:11:07.858Z,1.90
2019-05-13T09:13:42.345Z,1.45
2019-05-13T09:16:15.443Z,1.30
2019-05-13T09:18:48.352Z,1.10
2019-05-13T09:21:22.447Z,1.70
2019-05-13T09:23:55.491Z,1.00
2019-05-13T09:26:28.408Z,1.00
2019-05-13T09:29:01.707Z,1.12
2019-05-13T09:31:34.722Z,1.00
2019-05-13T09:34:07.589Z,0.90
2019-05-13T09:36:41.728Z,1.57
2019-05-13T09:39:14.821Z,1.98
2019-05-13T09:41:47.669Z,0.80
2019-05-13T09:44:21.799Z,0.90
2019-05-13T09:46:54.967Z,1.20
2019-05-13T09:49:27.945Z,1.00
2019-05-13T09:52:01.680Z,1.17
2019-05-13T09:54:34.836Z,1.30
2019-05-13T09:57:07.641Z,1.47
2019-05-13T09:59:42.307Z,1.40
2019-05-13T10:02:16.515Z,1.05
2019-05-13T10:04:51.531Z,0.95
2019-05-13T10:07:23.914Z,0.98
2019-05-13T10:09:56.727Z,0.98
2019-05-13T10:12:31.922Z,1.27
2019-05-13T10:15:04.404Z,1.05
2019-05-13T10:17:37.417Z,0.90
2019-05-13T10:20:12.094Z,1.00
2019-05-13T10:22:45.536Z,1.10
2019-05-13T10:25:22.404Z,1.10
2019-05-13T10:27:55.897Z,1.00
2019-05-13T10:30:28.800Z,1.07
2019-05-13T10:33:02.891Z,0.90
2019-05-13T10:35:37.224Z,0.98
2019-05-13T10:38:13.151Z,0.90
2019-05-13T10:40:44.709Z,0.80
2019-05-13T10:43:29.377Z,1.20
2019-05-13T10:45:53.489Z,1.02
2019-05-13T10:48:26.683Z,1.10
2019-05-13T10:51:01.980Z,1.10
2019-05-13T10:53:34.437Z,1.00
2019-05-13T10:56:07.348Z,0.90
2019-05-13T10:58:42.533Z,1.30
2019-05-13T11:01:14.884Z,1.00
2019-05-13T11:03:47.847Z,1.10
2019-05-13T11:06:21.923Z,1.00
2019-05-13T11:08:55.033Z,1.00
2019-05-13T11:11:28.404Z,0.90
2019-05-13T11:14:10.701Z,0.75
2019-05-13T11:16:36.265Z,0.90
2019-05-13T11:19:11.389Z,1.00
2019-05-13T11:21:44.480Z,1.00
2019-05-13T11:24:17.674Z,0.95
2019-05-13T11:26:53.188Z,0.93
2019-05-13T11:29:25.434Z,1.20
2019-05-13T11:31:58.464Z,0.90
2019-05-13T11:34:32.904Z,1.20
2019-05-13T11:37:06.156Z,0.90
2019-05-13T11:39:39.297Z,0.85
2019-05-13T11:42:13.638Z,0.90
2019-05-13T11:44:47.462Z,1.00
2019-05-13T11:47:20.450Z,1.00
2019-05-13T11:49:53.638Z,1.00
2019-05-13T11:52:26.492Z,0.82
2019-05-13T11:55:01.808Z,0.78
2019-05-13T11:57:34.233Z,0.80
2019-05-13T12:00:12.874Z,1.37
2019-05-13T12:02:50.475Z,1.00
2019-05-13T12:05:22.149Z,0.95
2019-05-13T12:07:54.135Z,1.00
2019-05-13T12:10:27.017Z,0.90
2019-05-13T12:12:59.857Z,0.80
2019-05-13T12:15:45.546Z,1.00
2019-05-13T12:18:07.235Z,1.00
2019-05-13T12:20:42.652Z,0.82
2019-05-13T12:23:14.756Z,0.78
2019-05-13T12:25:47.662Z,1.00
2019-05-13T12:28:20.705Z,0.80
2019-05-13T12:30:53.965Z,0.72
2019-05-13T12:33:27.592Z,0.68
2019-05-13T12:36:02.030Z,0.95
2019-05-13T12:38:35.291Z,0.70
2019-05-13T12:41:08.175Z,0.70
2019-05-13T12:43:42.564Z,0.88
2019-05-13T12:46:15.710Z,0.90
2019-05-13T12:48:48.729Z,0.70
2019-05-13T12:51:22.651Z,1.00
2019-05-13T12:53:55.827Z,0.90
2019-05-13T12:56:32.857Z,0.70
2019-05-13T12:59:04.331Z,1.20
2019-05-13T13:01:37.276Z,0.85
2019-05-13T13:04:12.235Z,0.80
2019-05-13T13:06:45.836Z,0.82
2019-05-13T13:09:20.034Z,0.65
2019-05-13T13:14:36.216Z,0.90
2019-05-13T13:19:37.514Z,1.42
2019-05-13T13:22:13.400Z,1.52
2019-05-13T13:24:51.549Z,1.87
2019-05-13T13:27:35.076Z,1.52
2019-05-13T13:30:03.261Z,1.10
2019-05-13T13:32:33.096Z,0.90
2019-05-13T13:35:04.788Z,0.80
2019-05-13T13:37:37.711Z,0.80
2019-05-13T13:40:11.579Z,0.70
2019-05-13T13:42:45.620Z,1.00
2019-05-13T13:45:18.575Z,1.02
2019-05-13T13:48:02.322Z,1.17
2019-05-13T13:50:26.208Z,0.80
2019-05-13T13:52:59.103Z,1.07
2019-05-13T13:55:32.360Z,1.30
2019-05-13T13:58:05.864Z,1.75
2019-05-13T14:00:55.076Z,1.45
2019-05-13T14:03:14.332Z,0.88
2019-05-13T14:05:47.238Z,1.00
2019-05-13T14:07:08.884Z,0.90
2019-05-13T14:07:12.875Z,0.60
2019-05-13T14:08:21.707Z,0.93
2019-05-13T14:10:55.587Z,1.10
2019-05-13T14:13:28.511Z,0.80
2019-05-13T14:16:02.039Z,0.85
2019-05-13T14:18:35.180Z,0.98
2019-05-13T14:21:08.045Z,1.02
2019-05-13T14:23:42.609Z,0.82
2019-05-13T14:26:17.179Z,0.70
2019-05-13T14:28:53.291Z,1.20
2019-05-13T14:31:24.541Z,1.00
2019-05-13T14:33:57.342Z,0.95
2019-05-13T14:36:30.273Z,1.10
2019-05-13T14:39:03.149Z,0.98
2019-05-13T14:41:36.046Z,3.10
2019-05-13T14:44:08.927Z,2.92
2019-05-13T14:46:47.654Z,2.75
2019-05-13T14:49:17.020Z,3.50
2019-05-13T14:51:52.269Z,2.50
2019-05-13T14:54:24.474Z,2.60
2019-05-13T14:56:57.613Z,1.60
2019-05-13T14:59:31.462Z,1.70
2019-05-13T15:02:04.571Z,1.52
2019-05-13T15:04:37.433Z,2.10
2019-05-13T15:07:12.153Z,3.02
2019-05-13T15:09:44.784Z,2.37
2019-05-13T15:12:17.642Z,2.95
2019-05-13T15:14:52.391Z,2.12
2019-05-13T15:17:25.218Z,2.20
2019-05-13T15:19:58.244Z,2.30
2019-05-13T15:22:31.869Z,1.70
2019-05-13T15:25:04.939Z,1.85
2019-05-13T15:27:37.896Z,1.70
2019-05-13T15:30:17.387Z,1.50
2019-05-13T15:32:46.062Z,1.20
2019-05-13T15:35:19.196Z,1.25
2019-05-13T15:37:53.165Z,1.57
2019-05-13T15:40:26.196Z,1.50
2019-05-13T15:42:59.101Z,1.52
2019-05-13T15:45:32.036Z,1.50
2019-05-13T15:48:05.261Z,1.50
2019-05-13T15:50:38.386Z,1.50
2019-05-13T15:53:13.005Z,1.52
2019-05-13T15:55:45.962Z,1.75
2019-05-13T15:58:19.065Z,1.55
2019-05-13T16:00:52.497Z,1.70
2019-05-13T16:03:25.787Z,1.70
2019-05-13T16:05:58.757Z,1.62
2019-05-13T16:08:32.051Z,1.47
2019-05-13T16:11:06.173Z,1.55
2019-05-13T16:13:39.002Z,2.00
2019-05-13T16:16:12.228Z,1.62
2019-05-13T16:18:45.297Z,1.30
2019-05-13T16:21:18.155Z,1.50
2019-05-13T16:23:51.970Z,1.25
2019-05-13T16:26:27.266Z,1.10
2019-05-13T16:29:02.090Z,1.07
2019-05-13T16:31:34.287Z,1.10
2019-05-13T16:34:07.160Z,1.40
2019-05-13T16:36:42.836Z,1.15
2019-05-13T16:39:14.840Z,1.32
2019-05-13T16:41:47.794Z,1.40
2019-05-13T16:44:22.483Z,1.30
2019-05-13T16:46:55.748Z,1.60
2019-05-13T16:49:28.654Z,1.85
2019-05-13T16:52:02.478Z,1.92
2019-05-13T16:54:35.742Z,2.52
2019-05-13T16:57:08.641Z,2.25
2019-05-13T16:59:41.619Z,2.30
2019-05-13T17:02:15.564Z,1.80
2019-05-13T17:04:48.414Z,1.80
2019-05-13T17:07:22.297Z,1.72
2019-05-13T17:09:55.264Z,2.20
2019-05-13T17:12:28.199Z,1.45
2019-05-13T17:15:01.466Z,1.57
2019-05-13T17:17:36.475Z,2.05
2019-05-13T17:20:12.453Z,3.12
2019-05-13T17:22:44.867Z,2.77
2019-05-13T17:25:18.262Z,1.80
2019-05-13T17:27:53.209Z,2.10
2019-05-13T17:30:26.159Z,2.55
2019-05-13T17:32:59.077Z,2.10
2019-05-13T17:35:32.150Z,2.40
2019-05-13T17:38:05.167Z,2.62
2019-05-13T17:40:38.071Z,2.62
2019-05-13T17:43:12.139Z,2.30
2019-05-13T17:45:46.133Z,2.75
2019-05-13T17:48:26.739Z,2.33
2019-05-13T17:50:54.037Z,2.42
2019-05-13T17:53:26.898Z,3.25
2019-05-13T17:56:02.130Z,3.87
2019-05-13T17:58:34.706Z,2.20
2019-05-13T18:01:07.663Z,2.50
2019-05-13T18:03:41.164Z,3.60
2019-05-13T18:06:15.350Z,3.67
2019-05-13T18:08:48.403Z,4.30
2019-05-13T18:11:22.041Z,4.03
2019-05-13T18:13:55.027Z,3.77
2019-05-13T18:16:27.943Z,5.20
2019-05-13T18:19:00.804Z,8.25
2019-05-13T18:21:33.763Z,8.68
2019-05-13T18:24:06.658Z,6.37
2019-05-13T18:26:41.967Z,8.05
2019-05-13T18:29:14.152Z,6.55
2019-05-13T18:31:47.142Z,4.62
2019-05-13T18:34:21.495Z,4.28
2019-05-13T18:36:57.654Z,4.22
2019-05-13T18:39:29.227Z,3.33
2019-05-13T18:42:02.184Z,2.80
2019-05-13T18:44:35.117Z,3.30
2019-05-13T18:47:07.989Z,4.53
2019-05-13T18:49:42.327Z,3.02
2019-05-13T18:52:15.598Z,3.42
2019-05-13T18:54:48.426Z,3.20
2019-05-13T18:57:23.238Z,4.53
2019-05-13T18:59:56.220Z,4.10
2019-05-13T19:02:32.058Z,3.77
2019-05-13T19:05:05.243Z,3.33
2019-05-13T19:07:38.215Z,4.10
2019-05-13T19:10:11.653Z,4.60
2019-05-13T19:12:44.652Z,4.83
2019-05-13T19:15:17.814Z,2.62
2019-05-13T19:17:52.084Z,2.92
2019-05-13T19:20:25.170Z,3.70
2019-05-13T19:22:58.116Z,4.97
2019-05-13T19:25:31.487Z,3.70
2019-05-13T19:28:04.675Z,3.95
2019-05-13T19:30:37.567Z,7.92
2019-05-13T19:33:12.192Z,4.85
2019-05-13T19:35:46.277Z,4.90
2019-05-13T19:38:21.035Z,6.42
2019-05-13T19:40:55.610Z,6.15
2019-05-13T19:43:28.551Z,6.87
2019-05-13T19:46:01.861Z,7.03
2019-05-13T19:48:34.882Z,5.30
2019-05-13T19:51:07.760Z,4.97
2019-05-13T19:53:41.478Z,4.95
2019-05-13T19:56:15.236Z,4.42
2019-05-13T19:58:48.087Z,5.10
2019-05-13T20:01:21.667Z,5.80
2019-05-13T20:03:54.849Z,5.35
2019-05-13T20:06:27.667Z,4.67
2019-05-13T20:09:01.513Z,6.47
2019-05-13T20:11:37.690Z,4.50
2019-05-13T20:14:12.229Z,4.53
2019-05-13T20:16:45.164Z,4.92
2019-05-13T20:19:18.110Z,5.75
2019-05-13T20:21:52.806Z,5.92
2019-05-13T20:24:26.896Z,8.20
2019-05-13T20:27:01.559Z,7.05
2019-05-13T20:29:34.426Z,5.83
2019-05-13T20:32:07.635Z,5.50
2019-05-13T20:34:40.526Z,6.17
2019-05-13T20:37:13.338Z,5.80
2019-05-13T20:39:47.340Z,5.55
2019-05-13T20:42:20.203Z,6.05
2019-05-13T20:44:53.007Z,5.28
2019-05-13T20:47:25.908Z,5.75
2019-05-13T20:50:02.128Z,5.10
2019-05-13T20:52:33.290Z,5.45
2019-05-13T20:55:06.681Z,5.80
2019-05-13T20:57:41.548Z,5.30
2019-05-13T21:00:15.266Z,4.87
2019-05-13T21:02:48.357Z,5.08
2019-05-13T21:05:21.864Z,5.37
2019-05-13T21:07:54.962Z,5.95
2019-05-13T21:10:27.866Z,6.00
2019-05-13T21:13:01.757Z,5.70
2019-05-13T21:15:34.765Z,5.35
2019-05-13T21:18:07.563Z,5.45
2019-05-13T21:20:41.034Z,4.83
2019-05-13T21:23:15.220Z,4.72
2019-05-13T21:25:48.067Z,5.00
2019-05-13T21:28:22.111Z,4.97
2019-05-13T21:30:55.198Z,4.45
2019-05-13T21:33:28.036Z,4.92
2019-05-13T21:36:02.005Z,5.05
2019-05-13T21:38:35.002Z,4.28
2019-05-13T21:41:07.836Z,4.80
2019-05-13T21:43:41.411Z,4.37
2019-05-13T21:46:14.521Z,5.08
2019-05-13T21:48:47.360Z,4.80
2019-05-13T21:51:22.181Z,5.00
2019-05-13T21:53:54.829Z,4.90
2019-05-13T21:56:27.663Z,4.42
2019-05-13T21:59:01.498Z,3.75
2019-05-13T22:01:35.173Z,3.57
2019-05-13T22:04:07.991Z,3.55
2019-05-13T22:06:40.862Z,3.80
2019-05-13T22:09:14.053Z,3.90
2019-05-13T22:11:46.898Z,3.50
2019-05-13T22:14:19.704Z,4.03
2019-05-13T22:16:52.488Z,4.30
2019-05-13T22:19:25.399Z,4.92
2019-05-13T22:21:58.228Z,6.97
2019-05-13T22:24:31.283Z,5.70
2019-05-13T22:27:04.409Z,6.87
2019-05-13T22:29:37.794Z,8.65
2019-05-13T22:32:12.146Z,13.75
2019-05-13T22:34:45.008Z,19.20
2019-05-13T22:37:17.909Z,21.53
2019-05-13T22:39:50.750Z,21.15
2019-05-13T22:42:23.597Z,22.70
2019-05-13T22:44:56.766Z,22.93
2019-05-13T22:47:31.513Z,22.93
2019-05-13T22:50:04.452Z,21.73
2019-05-13T22:52:37.465Z,21.35
2019-05-13T22:55:11.555Z,19.90
2019-05-13T22:57:44.655Z,17.77
2019-05-13T23:00:19.019Z,16.82
2019-05-13T23:02:53.711Z,15.58
2019-05-13T23:05:26.745Z,13.78
2019-05-13T23:08:02.045Z,12.63
2019-05-13T23:10:34.451Z,9.83
2019-05-13T23:13:07.444Z,8.43
2019-05-13T23:15:40.440Z,8.40
2019-05-13T23:18:13.452Z,10.20
2019-05-13T23:20:46.280Z,11.67
2019-05-13T23:23:19.260Z,10.00
2019-05-13T23:25:52.393Z,10.65
2019-05-13T23:28:25.418Z,10.55
2019-05-13T23:30:58.262Z,9.00
2019-05-13T23:33:31.500Z,8.05
2019-05-13T23:36:04.506Z,8.60
2019-05-13T23:38:37.341Z,8.45
2019-05-13T23:41:11.492Z,7.55
2019-05-13T23:43:44.553Z,6.03
2019-05-13T23:46:17.389Z,6.78
2019-05-13T23:48:52.039Z,6.72
2019-05-13T23:51:24.753Z,6.87
2019-05-13T23:53:57.598Z,6.55
2019-05-13T23:56:31.094Z,7.72
2019-05-13T23:59:04.083Z,7.93
